sensor_id;sensor_type;location;lat;lon;timestamp;temperature;humidity
9414;DHT22;4746;35.664;139.738;2024-01-30T00:01:02;7.40;53.20
9414;DHT22;4746;35.664;139.738;2024-01-30T00:03:29;7.50;53.50
9414;DHT22;4746;35.664;139.738;2024-01-30T00:05:57;7.60;53.90
9414;DHT22;4746;35.664;139.738;2024-01-30T00:08:24;7.60;53.30
9414;DHT22;4746;35.664;139.738;2024-01-30T00:10:52;7.70;53.20
9414;DHT22;4746;35.664;139.738;2024-01-30T00:13:20;7.80;53.10
9414;DHT22;4746;35.664;139.738;2024-01-30T00:15:48;7.80;52.10
9414;DHT22;4746;35.664;139.738;2024-01-30T00:18:15;7.90;52.20
9414;DHT22;4746;35.664;139.738;2024-01-30T00:20:43;7.90;51.90
9414;DHT22;4746;35.664;139.738;2024-01-30T00:23:10;7.90;51.30
9414;DHT22;4746;35.664;139.738;2024-01-30T00:25:38;8.00;50.70
9414;DHT22;4746;35.664;139.738;2024-01-30T00:28:05;8.00;50.70
9414;DHT22;4746;35.664;139.738;2024-01-30T00:30:33;8.00;50.50
9414;DHT22;4746;35.664;139.738;2024-01-30T00:33:02;8.00;49.30
9414;DHT22;4746;35.664;139.738;2024-01-30T00:35:30;8.00;49.40
9414;DHT22;4746;35.664;139.738;2024-01-30T00:37:58;8.10;49.40
9414;DHT22;4746;35.664;139.738;2024-01-30T00:40:26;8.10;48.90
9414;DHT22;4746;35.664;139.738;2024-01-30T00:42:53;8.10;48.70
9414;DHT22;4746;35.664;139.738;2024-01-30T00:45:21;8.10;48.50
9414;DHT22;4746;35.664;139.738;2024-01-30T00:47:48;8.10;48.40
9414;DHT22;4746;35.664;139.738;2024-01-30T00:50:16;8.20;48.50
9414;DHT22;4746;35.664;139.738;2024-01-30T00:52:43;8.20;48.50
9414;DHT22;4746;35.664;139.738;2024-01-30T00:55:11;8.30;48.70
9414;DHT22;4746;35.664;139.738;2024-01-30T00:57:40;8.30;48.40
9414;DHT22;4746;35.664;139.738;2024-01-30T01:00:08;8.40;47.70
9414;DHT22;4746;35.664;139.738;2024-01-30T01:02:36;8.40;47.60
9414;DHT22;4746;35.664;139.738;2024-01-30T01:05:05;8.40;46.90
9414;DHT22;4746;35.664;139.738;2024-01-30T01:07:33;8.50;47.20
9414;DHT22;4746;35.664;139.738;2024-01-30T01:10:01;8.60;47.30
9414;DHT22;4746;35.664;139.738;2024-01-30T01:12:30;8.60;47.40
9414;DHT22;4746;35.664;139.738;2024-01-30T01:14:57;8.70;46.80
9414;DHT22;4746;35.664;139.738;2024-01-30T01:17:25;8.70;45.80
9414;DHT22;4746;35.664;139.738;2024-01-30T01:19:53;8.70;45.50
9414;DHT22;4746;35.664;139.738;2024-01-30T01:22:20;8.70;44.90
9414;DHT22;4746;35.664;139.738;2024-01-30T01:24:49;8.80;44.80
9414;DHT22;4746;35.664;139.738;2024-01-30T01:27:16;8.90;44.20
9414;DHT22;4746;35.664;139.738;2024-01-30T01:29:44;8.90;43.60
9414;DHT22;4746;35.664;139.738;2024-01-30T01:32:11;8.90;42.70
9414;DHT22;4746;35.664;139.738;2024-01-30T01:34:39;8.90;42.30
9414;DHT22;4746;35.664;139.738;2024-01-30T01:37:06;8.90;42.20
9414;DHT22;4746;35.664;139.738;2024-01-30T01:39:34;8.90;42.30
9414;DHT22;4746;35.664;139.738;2024-01-30T01:42:02;9.00;42.00
9414;DHT22;4746;35.664;139.738;2024-01-30T01:44:29;9.10;42.40
9414;DHT22;4746;35.664;139.738;2024-01-30T01:46:57;9.20;42.60
9414;DHT22;4746;35.664;139.738;2024-01-30T01:49:26;9.20;42.20
9414;DHT22;4746;35.664;139.738;2024-01-30T01:51:56;9.30;41.40
9414;DHT22;4746;35.664;139.738;2024-01-30T01:54:26;9.40;40.60
9414;DHT22;4746;35.664;139.738;2024-01-30T01:56:55;9.50;39.60
9414;DHT22;4746;35.664;139.738;2024-01-30T01:59:24;9.60;39.10
9414;DHT22;4746;35.664;139.738;2024-01-30T02:01:54;9.70;38.80
9414;DHT22;4746;35.664;139.738;2024-01-30T02:04:22;9.70;38.50
9414;DHT22;4746;35.664;139.738;2024-01-30T02:06:50;9.80;38.20
9414;DHT22;4746;35.664;139.738;2024-01-30T02:09:18;9.80;37.60
9414;DHT22;4746;35.664;139.738;2024-01-30T02:11:45;9.90;37.40
9414;DHT22;4746;35.664;139.738;2024-01-30T02:14:13;10.00;36.50
9414;DHT22;4746;35.664;139.738;2024-01-30T02:16:40;10.10;35.90
9414;DHT22;4746;35.664;139.738;2024-01-30T02:19:08;10.20;36.00
9414;DHT22;4746;35.664;139.738;2024-01-30T02:21:35;10.30;35.60
9414;DHT22;4746;35.664;139.738;2024-01-30T02:24:03;10.50;35.20
9414;DHT22;4746;35.664;139.738;2024-01-30T02:26:32;10.60;35.40
9414;DHT22;4746;35.664;139.738;2024-01-30T02:28:59;10.70;34.70
9414;DHT22;4746;35.664;139.738;2024-01-30T02:31:27;10.80;34.30
9414;DHT22;4746;35.664;139.738;2024-01-30T02:33:54;10.90;33.80
9414;DHT22;4746;35.664;139.738;2024-01-30T02:36:22;11.00;33.30
9414;DHT22;4746;35.664;139.738;2024-01-30T02:38:49;11.10;32.20
9414;DHT22;4746;35.664;139.738;2024-01-30T02:41:17;11.20;31.50
9414;DHT22;4746;35.664;139.738;2024-01-30T02:43:46;11.20;30.80
9414;DHT22;4746;35.664;139.738;2024-01-30T02:46:13;11.40;30.60
9414;DHT22;4746;35.664;139.738;2024-01-30T02:48:41;11.50;29.80
9414;DHT22;4746;35.664;139.738;2024-01-30T02:51:08;11.60;29.80
9414;DHT22;4746;35.664;139.738;2024-01-30T02:53:36;11.70;29.00
9414;DHT22;4746;35.664;139.738;2024-01-30T02:56:03;11.80;28.50
9414;DHT22;4746;35.664;139.738;2024-01-30T02:58:32;11.80;28.60
9414;DHT22;4746;35.664;139.738;2024-01-30T03:01:02;11.90;28.80
9414;DHT22;4746;35.664;139.738;2024-01-30T03:03:29;12.00;28.90
9414;DHT22;4746;35.664;139.738;2024-01-30T03:05:57;12.10;29.10
9414;DHT22;4746;35.664;139.738;2024-01-30T03:08:25;12.30;29.40
9414;DHT22;4746;35.664;139.738;2024-01-30T03:10:52;12.50;29.20
9414;DHT22;4746;35.664;139.738;2024-01-30T03:13:21;12.80;29.10
9414;DHT22;4746;35.664;139.738;2024-01-30T03:15:51;13.10;28.90
9414;DHT22;4746;35.664;139.738;2024-01-30T03:18:19;13.30;28.40
9414;DHT22;4746;35.664;139.738;2024-01-30T03:20:46;13.50;28.40
9414;DHT22;4746;35.664;139.738;2024-01-30T03:23:13;13.60;28.00
9414;DHT22;4746;35.664;139.738;2024-01-30T03:25:41;13.90;27.80
9414;DHT22;4746;35.664;139.738;2024-01-30T03:28:08;14.20;27.90
9414;DHT22;4746;35.664;139.738;2024-01-30T03:30:37;14.50;27.70
9414;DHT22;4746;35.664;139.738;2024-01-30T03:33:07;14.70;27.90
9414;DHT22;4746;35.664;139.738;2024-01-30T03:35:36;14.90;28.00
9414;DHT22;4746;35.664;139.738;2024-01-30T03:38:04;15.20;27.70
9414;DHT22;4746;35.664;139.738;2024-01-30T03:40:31;15.40;26.70
9414;DHT22;4746;35.664;139.738;2024-01-30T03:42:59;15.40;26.10
9414;DHT22;4746;35.664;139.738;2024-01-30T03:45:26;15.60;25.40
9414;DHT22;4746;35.664;139.738;2024-01-30T03:47:54;15.70;24.70
9414;DHT22;4746;35.664;139.738;2024-01-30T03:50:21;15.80;24.40
9414;DHT22;4746;35.664;139.738;2024-01-30T03:52:49;15.80;24.00
9414;DHT22;4746;35.664;139.738;2024-01-30T03:55:16;15.70;23.10
9414;DHT22;4746;35.664;139.738;2024-01-30T03:57:44;15.60;22.30
9414;DHT22;4746;35.664;139.738;2024-01-30T04:00:12;15.50;21.60
9414;DHT22;4746;35.664;139.738;2024-01-30T04:02:40;15.50;21.90
9414;DHT22;4746;35.664;139.738;2024-01-30T04:05:08;15.70;22.50
9414;DHT22;4746;35.664;139.738;2024-01-30T04:07:36;16.00;22.20
9414;DHT22;4746;35.664;139.738;2024-01-30T04:10:03;16.30;21.70
9414;DHT22;4746;35.664;139.738;2024-01-30T04:12:34;16.50;21.40
9414;DHT22;4746;35.664;139.738;2024-01-30T04:15:02;16.70;20.90
9414;DHT22;4746;35.664;139.738;2024-01-30T04:17:30;17.10;20.40
9414;DHT22;4746;35.664;139.738;2024-01-30T04:19:57;17.40;20.10
9414;DHT22;4746;35.664;139.738;2024-01-30T04:22:25;17.70;20.20
9414;DHT22;4746;35.664;139.738;2024-01-30T04:24:52;18.00;19.70
9414;DHT22;4746;35.664;139.738;2024-01-30T04:27:20;18.40;19.70
9414;DHT22;4746;35.664;139.738;2024-01-30T04:29:47;18.70;19.10
9414;DHT22;4746;35.664;139.738;2024-01-30T04:32:15;18.80;19.00
9414;DHT22;4746;35.664;139.738;2024-01-30T04:34:42;19.30;19.20
9414;DHT22;4746;35.664;139.738;2024-01-30T04:37:11;19.80;19.40
9414;DHT22;4746;35.664;139.738;2024-01-30T04:39:38;20.30;18.90
9414;DHT22;4746;35.664;139.738;2024-01-30T04:42:07;20.90;18.60
9414;DHT22;4746;35.664;139.738;2024-01-30T04:44:34;21.50;18.20
9414;DHT22;4746;35.664;139.738;2024-01-30T04:47:02;21.70;17.30
9414;DHT22;4746;35.664;139.738;2024-01-30T04:49:31;22.20;17.10
9414;DHT22;4746;35.664;139.738;2024-01-30T04:51:59;22.80;16.60
9414;DHT22;4746;35.664;139.738;2024-01-30T04:54:26;23.10;15.50
9414;DHT22;4746;35.664;139.738;2024-01-30T04:56:54;23.40;15.30
9414;DHT22;4746;35.664;139.738;2024-01-30T04:59:21;23.70;14.80
9414;DHT22;4746;35.664;139.738;2024-01-30T05:01:49;24.00;15.20
9414;DHT22;4746;35.664;139.738;2024-01-30T05:04:17;24.20;13.80
9414;DHT22;4746;35.664;139.738;2024-01-30T05:06:46;24.20;13.20
9414;DHT22;4746;35.664;139.738;2024-01-30T05:09:13;24.40;13.10
9414;DHT22;4746;35.664;139.738;2024-01-30T05:11:41;24.80;12.90
9414;DHT22;4746;35.664;139.738;2024-01-30T05:14:09;24.90;12.70
9414;DHT22;4746;35.664;139.738;2024-01-30T05:16:38;25.10;11.90
9414;DHT22;4746;35.664;139.738;2024-01-30T05:19:05;25.20;11.90
9414;DHT22;4746;35.664;139.738;2024-01-30T05:21:33;25.40;11.80
9414;DHT22;4746;35.664;139.738;2024-01-30T05:24:01;25.60;11.60
9414;DHT22;4746;35.664;139.738;2024-01-30T05:26:28;25.90;10.90
9414;DHT22;4746;35.664;139.738;2024-01-30T05:28:56;26.10;10.50
9414;DHT22;4746;35.664;139.738;2024-01-30T05:31:24;26.40;10.30
9414;DHT22;4746;35.664;139.738;2024-01-30T05:33:54;26.60;9.90
9414;DHT22;4746;35.664;139.738;2024-01-30T05:36:21;26.60;9.30
9414;DHT22;4746;35.664;139.738;2024-01-30T05:38:49;26.70;9.30
9414;DHT22;4746;35.664;139.738;2024-01-30T05:41:16;27.00;9.60
9414;DHT22;4746;35.664;139.738;2024-01-30T05:43:44;27.30;9.30
9414;DHT22;4746;35.664;139.738;2024-01-30T05:46:11;27.60;9.30
9414;DHT22;4746;35.664;139.738;2024-01-30T05:48:39;27.50;9.10
9414;DHT22;4746;35.664;139.738;2024-01-30T05:51:07;27.50;9.00
9414;DHT22;4746;35.664;139.738;2024-01-30T05:53:35;27.60;9.00
9414;DHT22;4746;35.664;139.738;2024-01-30T05:56:03;27.80;9.00
9414;DHT22;4746;35.664;139.738;2024-01-30T05:58:31;28.00;8.90
9414;DHT22;4746;35.664;139.738;2024-01-30T06:00:58;28.00;9.10
9414;DHT22;4746;35.664;139.738;2024-01-30T06:03:26;28.20;8.90
9414;DHT22;4746;35.664;139.738;2024-01-30T06:05:53;28.40;8.40
9414;DHT22;4746;35.664;139.738;2024-01-30T06:08:21;28.50;8.20
9414;DHT22;4746;35.664;139.738;2024-01-30T06:10:48;28.20;8.00
9414;DHT22;4746;35.664;139.738;2024-01-30T06:13:16;28.20;8.10
9414;DHT22;4746;35.664;139.738;2024-01-30T06:15:44;28.20;8.10
9414;DHT22;4746;35.664;139.738;2024-01-30T06:18:11;28.20;8.00
9414;DHT22;4746;35.664;139.738;2024-01-30T06:20:38;28.30;8.30
9414;DHT22;4746;35.664;139.738;2024-01-30T06:23:06;28.60;8.80
9414;DHT22;4746;35.664;139.738;2024-01-30T06:25:34;28.90;9.00
9414;DHT22;4746;35.664;139.738;2024-01-30T06:28:01;28.70;9.00
9414;DHT22;4746;35.664;139.738;2024-01-30T06:30:29;28.80;9.00
9414;DHT22;4746;35.664;139.738;2024-01-30T06:32:57;28.80;8.60
9414;DHT22;4746;35.664;139.738;2024-01-30T06:35:24;28.80;8.60
9414;DHT22;4746;35.664;139.738;2024-01-30T06:37:52;28.90;8.80
9414;DHT22;4746;35.664;139.738;2024-01-30T06:40:19;29.10;8.40
9414;DHT22;4746;35.664;139.738;2024-01-30T06:42:47;29.00;8.00
9414;DHT22;4746;35.664;139.738;2024-01-30T06:45:14;28.90;7.70
9414;DHT22;4746;35.664;139.738;2024-01-30T06:47:42;28.70;7.60
9414;DHT22;4746;35.664;139.738;2024-01-30T06:50:09;28.30;7.80
9414;DHT22;4746;35.664;139.738;2024-01-30T06:52:37;28.20;8.20
9414;DHT22;4746;35.664;139.738;2024-01-30T06:55:04;28.00;8.40
9414;DHT22;4746;35.664;139.738;2024-01-30T06:57:32;28.20;8.00
9414;DHT22;4746;35.664;139.738;2024-01-30T07:00:00;28.30;7.90
9414;DHT22;4746;35.664;139.738;2024-01-30T07:02:27;27.90;7.60
9414;DHT22;4746;35.664;139.738;2024-01-30T07:04:55;27.30;7.80
9414;DHT22;4746;35.664;139.738;2024-01-30T07:07:23;27.00;8.00
9414;DHT22;4746;35.664;139.738;2024-01-30T07:09:50;26.90;8.20
9414;DHT22;4746;35.664;139.738;2024-01-30T07:12:25;26.90;8.30
9414;DHT22;4746;35.664;139.738;2024-01-30T07:14:53;27.00;8.30
9414;DHT22;4746;35.664;139.738;2024-01-30T07:17:22;27.00;8.40
9414;DHT22;4746;35.664;139.738;2024-01-30T07:19:50;26.40;8.50
9414;DHT22;4746;35.664;139.738;2024-01-30T07:22:17;25.60;8.70
9414;DHT22;4746;35.664;139.738;2024-01-30T07:24:45;24.80;9.00
9414;DHT22;4746;35.664;139.738;2024-01-30T07:27:14;24.00;9.50
9414;DHT22;4746;35.664;139.738;2024-01-30T07:29:44;23.20;9.80
9414;DHT22;4746;35.664;139.738;2024-01-30T07:32:11;22.40;10.20
9414;DHT22;4746;35.664;139.738;2024-01-30T07:34:39;21.70;10.60
9414;DHT22;4746;35.664;139.738;2024-01-30T07:37:06;21.00;11.10
9414;DHT22;4746;35.664;139.738;2024-01-30T07:39:35;20.50;12.10
9414;DHT22;4746;35.664;139.738;2024-01-30T07:42:03;19.80;11.80
9414;DHT22;4746;35.664;139.738;2024-01-30T07:44:30;19.30;12.20
9414;DHT22;4746;35.664;139.738;2024-01-30T07:46:58;18.80;12.50
9414;DHT22;4746;35.664;139.738;2024-01-30T07:49:25;18.40;12.90
9414;DHT22;4746;35.664;139.738;2024-01-30T07:51:53;18.10;13.40
9414;DHT22;4746;35.664;139.738;2024-01-30T07:54:21;17.70;13.70
9414;DHT22;4746;35.664;139.738;2024-01-30T07:56:49;17.40;14.10
9414;DHT22;4746;35.664;139.738;2024-01-30T07:59:17;17.10;14.20
9414;DHT22;4746;35.664;139.738;2024-01-30T08:01:48;16.90;14.50
9414;DHT22;4746;35.664;139.738;2024-01-30T08:04:15;16.60;14.60
9414;DHT22;4746;35.664;139.738;2024-01-30T08:06:44;16.30;14.60
9414;DHT22;4746;35.664;139.738;2024-01-30T08:09:11;16.10;14.70
9414;DHT22;4746;35.664;139.738;2024-01-30T08:11:39;15.80;15.10
9414;DHT22;4746;35.664;139.738;2024-01-30T08:14:06;15.70;15.40
9414;DHT22;4746;35.664;139.738;2024-01-30T08:16:34;15.50;15.60
9414;DHT22;4746;35.664;139.738;2024-01-30T08:19:02;15.30;15.70
9414;DHT22;4746;35.664;139.738;2024-01-30T08:21:30;15.20;16.10
9414;DHT22;4746;35.664;139.738;2024-01-30T08:24:06;15.00;16.20
9414;DHT22;4746;35.664;139.738;2024-01-30T08:26:34;14.90;16.20
9414;DHT22;4746;35.664;139.738;2024-01-30T08:29:02;14.80;16.40
9414;DHT22;4746;35.664;139.738;2024-01-30T08:31:30;14.70;16.30
9414;DHT22;4746;35.664;139.738;2024-01-30T08:33:58;14.70;16.60
9414;DHT22;4746;35.664;139.738;2024-01-30T08:36:25;14.60;16.60
9414;DHT22;4746;35.664;139.738;2024-01-30T08:38:53;14.50;16.70
9414;DHT22;4746;35.664;139.738;2024-01-30T08:41:21;14.40;16.80
9414;DHT22;4746;35.664;139.738;2024-01-30T08:43:48;14.30;16.90
9414;DHT22;4746;35.664;139.738;2024-01-30T08:46:19;14.20;17.10
9414;DHT22;4746;35.664;139.738;2024-01-30T08:48:47;14.20;17.40
9414;DHT22;4746;35.664;139.738;2024-01-30T08:51:14;14.10;17.40
9414;DHT22;4746;35.664;139.738;2024-01-30T08:53:41;14.00;17.60
9414;DHT22;4746;35.664;139.738;2024-01-30T08:56:09;13.90;17.70
9414;DHT22;4746;35.664;139.738;2024-01-30T08:58:37;13.90;18.00
9414;DHT22;4746;35.664;139.738;2024-01-30T09:01:04;13.80;18.10
9414;DHT22;4746;35.664;139.738;2024-01-30T09:03:32;13.70;18.80
9414;DHT22;4746;35.664;139.738;2024-01-30T09:06:00;13.70;18.60
9414;DHT22;4746;35.664;139.738;2024-01-30T09:08:27;13.60;18.80
9414;DHT22;4746;35.664;139.738;2024-01-30T09:10:55;13.50;18.90
9414;DHT22;4746;35.664;139.738;2024-01-30T09:13:25;13.50;19.00
9414;DHT22;4746;35.664;139.738;2024-01-30T09:15:52;13.40;19.10
9414;DHT22;4746;35.664;139.738;2024-01-30T09:18:20;13.30;19.30
9414;DHT22;4746;35.664;139.738;2024-01-30T09:20:48;13.30;19.50
9414;DHT22;4746;35.664;139.738;2024-01-30T09:23:16;13.30;19.80
9414;DHT22;4746;35.664;139.738;2024-01-30T09:25:45;13.20;19.90
9414;DHT22;4746;35.664;139.738;2024-01-30T09:28:12;13.20;20.10
9414;DHT22;4746;35.664;139.738;2024-01-30T09:30:40;13.10;20.40
9414;DHT22;4746;35.664;139.738;2024-01-30T09:33:07;13.10;20.70
9414;DHT22;4746;35.664;139.738;2024-01-30T09:35:38;13.00;20.90
9414;DHT22;4746;35.664;139.738;2024-01-30T09:38:06;13.00;21.10
9414;DHT22;4746;35.664;139.738;2024-01-30T09:40:33;12.90;21.10
9414;DHT22;4746;35.664;139.738;2024-01-30T09:43:01;12.90;21.00
9414;DHT22;4746;35.664;139.738;2024-01-30T09:45:32;12.90;20.80
9414;DHT22;4746;35.664;139.738;2024-01-30T09:48:02;12.80;20.40
9414;DHT22;4746;35.664;139.738;2024-01-30T09:50:30;12.80;20.70
9414;DHT22;4746;35.664;139.738;2024-01-30T09:53:02;12.70;20.10
9414;DHT22;4746;35.664;139.738;2024-01-30T09:55:32;12.70;20.40
9414;DHT22;4746;35.664;139.738;2024-01-30T09:58:02;12.70;20.60
9414;DHT22;4746;35.664;139.738;2024-01-30T10:00:29;12.60;21.00
9414;DHT22;4746;35.664;139.738;2024-01-30T10:02:59;12.50;21.10
9414;DHT22;4746;35.664;139.738;2024-01-30T10:05:32;12.50;20.40
9414;DHT22;4746;35.664;139.738;2024-01-30T10:08:06;12.50;20.20
9414;DHT22;4746;35.664;139.738;2024-01-30T10:10:35;12.40;20.10
9414;DHT22;4746;35.664;139.738;2024-01-30T10:13:02;12.40;20.50
9414;DHT22;4746;35.664;139.738;2024-01-30T10:15:30;12.30;20.50
9414;DHT22;4746;35.664;139.738;2024-01-30T10:17:58;12.30;20.50
9414;DHT22;4746;35.664;139.738;2024-01-30T10:20:25;12.20;19.80
9414;DHT22;4746;35.664;139.738;2024-01-30T10:22:53;12.10;19.30
9414;DHT22;4746;35.664;139.738;2024-01-30T10:25:22;12.10;19.60
9414;DHT22;4746;35.664;139.738;2024-01-30T10:27:55;12.10;20.50
9414;DHT22;4746;35.664;139.738;2024-01-30T10:30:24;12.10;22.00
9414;DHT22;4746;35.664;139.738;2024-01-30T10:32:52;12.10;23.50
9414;DHT22;4746;35.664;139.738;2024-01-30T10:35:19;12.20;24.60
9414;DHT22;4746;35.664;139.738;2024-01-30T10:37:50;12.30;25.90
9414;DHT22;4746;35.664;139.738;2024-01-30T10:40:22;12.40;27.50
9414;DHT22;4746;35.664;139.738;2024-01-30T10:42:56;12.40;29.30
9414;DHT22;4746;35.664;139.738;2024-01-30T10:45:27;12.40;29.80
9414;DHT22;4746;35.664;139.738;2024-01-30T10:47:59;12.50;31.70
9414;DHT22;4746;35.664;139.738;2024-01-30T10:50:29;12.60;31.60
9414;DHT22;4746;35.664;139.738;2024-01-30T10:52:59;12.60;30.80
9414;DHT22;4746;35.664;139.738;2024-01-30T10:55:29;12.70;30.30
9414;DHT22;4746;35.664;139.738;2024-01-30T10:57:57;12.70;30.60
9414;DHT22;4746;35.664;139.738;2024-01-30T11:00:25;12.80;31.00
9414;DHT22;4746;35.664;139.738;2024-01-30T11:02:54;12.80;31.70
9414;DHT22;4746;35.664;139.738;2024-01-30T11:05:26;12.80;33.10
9414;DHT22;4746;35.664;139.738;2024-01-30T11:07:55;12.70;33.30
9414;DHT22;4746;35.664;139.738;2024-01-30T11:10:25;12.70;34.40
9414;DHT22;4746;35.664;139.738;2024-01-30T11:12:53;12.60;35.40
9414;DHT22;4746;35.664;139.738;2024-01-30T11:15:20;12.60;36.60
9414;DHT22;4746;35.664;139.738;2024-01-30T11:17:51;12.60;37.70
9414;DHT22;4746;35.664;139.738;2024-01-30T11:20:25;12.60;39.90
9414;DHT22;4746;35.664;139.738;2024-01-30T11:23:00;12.60;41.60
9414;DHT22;4746;35.664;139.738;2024-01-30T11:25:33;12.60;43.90
9414;DHT22;4746;35.664;139.738;2024-01-30T11:28:02;12.50;45.90
9414;DHT22;4746;35.664;139.738;2024-01-30T11:30:31;12.40;51.20
9414;DHT22;4746;35.664;139.738;2024-01-30T11:33:00;12.40;54.80
9414;DHT22;4746;35.664;139.738;2024-01-30T11:35:40;12.40;62.60
9414;DHT22;4746;35.664;139.738;2024-01-30T11:38:10;12.40;81.90
9414;DHT22;4746;35.664;139.738;2024-01-30T11:40:40;12.30;90.50
9414;DHT22;4746;35.664;139.738;2024-01-30T11:43:08;12.30;91.70
9414;DHT22;4746;35.664;139.738;2024-01-30T11:45:37;12.30;98.50
9414;DHT22;4746;35.664;139.738;2024-01-30T11:48:05;12.30;99.90
9414;DHT22;4746;35.664;139.738;2024-01-30T11:50:38;12.30;99.90
9414;DHT22;4746;35.664;139.738;2024-01-30T11:53:11;12.30;99.90
9414;DHT22;4746;35.664;139.738;2024-01-30T11:55:38;12.30;98.60
9414;DHT22;4746;35.664;139.738;2024-01-30T11:58:06;12.30;99.70
9414;DHT22;4746;35.664;139.738;2024-01-30T12:00:34;12.20;98.70
9414;DHT22;4746;35.664;139.738;2024-01-30T12:03:02;12.20;96.70
9414;DHT22;4746;35.664;139.738;2024-01-30T12:05:32;12.20;97.80
9414;DHT22;4746;35.664;139.738;2024-01-30T12:08:00;12.20;96.20
9414;DHT22;4746;35.664;139.738;2024-01-30T12:10:28;12.20;94.90
9414;DHT22;4746;35.664;139.738;2024-01-30T12:12:56;12.20;93.70
9414;DHT22;4746;35.664;139.738;2024-01-30T12:15:25;12.20;93.50
9414;DHT22;4746;35.664;139.738;2024-01-30T12:18:03;12.10;93.10
9414;DHT22;4746;35.664;139.738;2024-01-30T12:20:38;12.10;88.50
9414;DHT22;4746;35.664;139.738;2024-01-30T12:23:06;12.00;91.30
9414;DHT22;4746;35.664;139.738;2024-01-30T12:25:33;12.00;86.90
9414;DHT22;4746;35.664;139.738;2024-01-30T12:28:01;12.00;78.90
9414;DHT22;4746;35.664;139.738;2024-01-30T12:30:34;12.00;76.20
9414;DHT22;4746;35.664;139.738;2024-01-30T12:33:02;12.10;74.90
9414;DHT22;4746;35.664;139.738;2024-01-30T12:35:31;12.10;71.80
9414;DHT22;4746;35.664;139.738;2024-01-30T12:37:59;12.00;68.90
9414;DHT22;4746;35.664;139.738;2024-01-30T12:40:27;12.00;67.10
9414;DHT22;4746;35.664;139.738;2024-01-30T12:42:54;12.00;65.90
9414;DHT22;4746;35.664;139.738;2024-01-30T12:45:22;12.00;64.70
9414;DHT22;4746;35.664;139.738;2024-01-30T12:47:50;12.00;62.50
9414;DHT22;4746;35.664;139.738;2024-01-30T12:50:18;12.00;62.20
9414;DHT22;4746;35.664;139.738;2024-01-30T12:52:45;12.00;62.30
9414;DHT22;4746;35.664;139.738;2024-01-30T12:55:13;12.00;64.00
9414;DHT22;4746;35.664;139.738;2024-01-30T12:57:41;12.00;62.60
9414;DHT22;4746;35.664;139.738;2024-01-30T13:00:10;12.00;60.80
9414;DHT22;4746;35.664;139.738;2024-01-30T13:02:38;11.90;62.40
9414;DHT22;4746;35.664;139.738;2024-01-30T13:05:06;11.90;57.60
9414;DHT22;4746;35.664;139.738;2024-01-30T13:07:34;11.90;54.90
9414;DHT22;4746;35.664;139.738;2024-01-30T13:10:02;11.90;54.10
9414;DHT22;4746;35.664;139.738;2024-01-30T13:12:30;11.90;52.70
9414;DHT22;4746;35.664;139.738;2024-01-30T13:15:02;11.90;51.90
9414;DHT22;4746;35.664;139.738;2024-01-30T13:17:31;11.80;50.70
9414;DHT22;4746;35.664;139.738;2024-01-30T13:19:59;11.80;50.40
9414;DHT22;4746;35.664;139.738;2024-01-30T13:22:27;11.80;50.20
9414;DHT22;4746;35.664;139.738;2024-01-30T13:24:54;11.80;49.90
9414;DHT22;4746;35.664;139.738;2024-01-30T13:27:22;11.80;49.90
9414;DHT22;4746;35.664;139.738;2024-01-30T13:29:49;11.80;49.40
9414;DHT22;4746;35.664;139.738;2024-01-30T13:32:17;11.70;49.20
9414;DHT22;4746;35.664;139.738;2024-01-30T13:34:45;11.70;48.90
9414;DHT22;4746;35.664;139.738;2024-01-30T13:37:13;11.70;49.40
9414;DHT22;4746;35.664;139.738;2024-01-30T13:39:40;11.70;49.40
9414;DHT22;4746;35.664;139.738;2024-01-30T13:42:08;11.60;49.40
9414;DHT22;4746;35.664;139.738;2024-01-30T13:44:36;11.60;49.30
9414;DHT22;4746;35.664;139.738;2024-01-30T13:47:04;11.50;49.30
9414;DHT22;4746;35.664;139.738;2024-01-30T13:49:32;11.50;49.30
9414;DHT22;4746;35.664;139.738;2024-01-30T13:51:59;11.50;49.50
9414;DHT22;4746;35.664;139.738;2024-01-30T13:54:27;11.50;50.10
9414;DHT22;4746;35.664;139.738;2024-01-30T13:56:54;11.50;50.30
9414;DHT22;4746;35.664;139.738;2024-01-30T13:59:22;11.50;50.40
9414;DHT22;4746;35.664;139.738;2024-01-30T14:01:52;11.40;50.40
9414;DHT22;4746;35.664;139.738;2024-01-30T14:04:19;11.40;51.20
9414;DHT22;4746;35.664;139.738;2024-01-30T14:06:47;11.40;51.60
9414;DHT22;4746;35.664;139.738;2024-01-30T14:09:15;11.40;51.50
9414;DHT22;4746;35.664;139.738;2024-01-30T14:11:42;11.30;51.80
9414;DHT22;4746;35.664;139.738;2024-01-30T14:14:14;11.30;53.00
9414;DHT22;4746;35.664;139.738;2024-01-30T14:16:42;11.30;53.50
9414;DHT22;4746;35.664;139.738;2024-01-30T14:19:09;11.20;53.90
9414;DHT22;4746;35.664;139.738;2024-01-30T14:21:37;11.20;53.10
9414;DHT22;4746;35.664;139.738;2024-01-30T14:24:09;11.20;53.10
9414;DHT22;4746;35.664;139.738;2024-01-30T14:26:38;11.10;54.30
9414;DHT22;4746;35.664;139.738;2024-01-30T14:29:05;11.10;55.90
9414;DHT22;4746;35.664;139.738;2024-01-30T14:31:33;11.00;57.10
9414;DHT22;4746;35.664;139.738;2024-01-30T14:34:01;10.90;58.10
9414;DHT22;4746;35.664;139.738;2024-01-30T14:36:29;10.90;58.80
9414;DHT22;4746;35.664;139.738;2024-01-30T14:38:56;10.90;60.60
9414;DHT22;4746;35.664;139.738;2024-01-30T14:41:24;10.80;62.50
9414;DHT22;4746;35.664;139.738;2024-01-30T14:43:52;10.80;64.70
9414;DHT22;4746;35.664;139.738;2024-01-30T14:46:21;10.70;65.90
9414;DHT22;4746;35.664;139.738;2024-01-30T14:48:49;10.70;67.80
9414;DHT22;4746;35.664;139.738;2024-01-30T14:51:17;10.80;69.10
9414;DHT22;4746;35.664;139.738;2024-01-30T14:53:45;10.70;74.50
9414;DHT22;4746;35.664;139.738;2024-01-30T14:56:12;10.80;76.20
9414;DHT22;4746;35.664;139.738;2024-01-30T14:58:40;10.70;74.30
9414;DHT22;4746;35.664;139.738;2024-01-30T15:01:09;10.70;82.10
9414;DHT22;4746;35.664;139.738;2024-01-30T15:03:37;10.60;90.10
9414;DHT22;4746;35.664;139.738;2024-01-30T15:06:06;10.70;92.60
9414;DHT22;4746;35.664;139.738;2024-01-30T15:08:34;10.70;87.30
9414;DHT22;4746;35.664;139.738;2024-01-30T15:11:02;10.60;78.00
9414;DHT22;4746;35.664;139.738;2024-01-30T15:13:31;10.60;80.10
9414;DHT22;4746;35.664;139.738;2024-01-30T15:15:59;10.60;73.60
9414;DHT22;4746;35.664;139.738;2024-01-30T15:18:29;10.60;70.20
9414;DHT22;4746;35.664;139.738;2024-01-30T15:20:56;10.50;71.10
9414;DHT22;4746;35.664;139.738;2024-01-30T15:23:24;10.50;66.20
9414;DHT22;4746;35.664;139.738;2024-01-30T15:25:52;10.50;61.40
9414;DHT22;4746;35.664;139.738;2024-01-30T15:28:19;10.40;57.60
9414;DHT22;4746;35.664;139.738;2024-01-30T15:30:51;10.40;55.20
9414;DHT22;4746;35.664;139.738;2024-01-30T15:33:19;10.30;54.50
9414;DHT22;4746;35.664;139.738;2024-01-30T15:35:46;10.30;57.40
9414;DHT22;4746;35.664;139.738;2024-01-30T15:38:15;10.30;62.00
9414;DHT22;4746;35.664;139.738;2024-01-30T15:40:43;10.30;65.90